sensor_id;sensor_type;location;lat;lon;timestamp;P1;durP1;ratioP1;P2;durP2;ratioP2
53056;SDS011;38940;50.096;4.012;2022-11-04T02:44:26;58.95;;;54.95;;
53056;SDS011;38940;50.096;4.012;2022-11-04T03:01:58;51.08;;;47.60;;
53056;SDS011;38940;50.096;4.012;2022-11-04T03:10:25;60.20;;;55.15;;
53056;SDS011;38940;50.096;4.012;2022-11-04T03:13:13;57.25;;;53.30;;
53056;SDS011;38940;50.096;4.012;2022-11-04T03:24:34;51.72;;;48.42;;
53056;SDS011;38940;50.096;4.012;2022-11-04T04:19:50;52.80;;;49.40;;
53056;SDS011;38940;50.096;4.012;2022-11-04T05:40:29;87.75;;;81.40;;
53056;SDS011;38940;50.096;4.012;2022-11-04T06:04:13;87.03;;;81.10;;
53056;SDS011;38940;50.096;4.012;2022-11-04T06:30:02;80.07;;;74.80;;
53056;SDS011;38940;50.096;4.012;2022-11-04T07:24:50;81.38;;;75.78;;
53056;SDS011;38940;50.096;4.012;2022-11-04T07:36:17;71.00;;;66.45;;
53056;SDS011;38940;50.096;4.012;2022-11-04T07:57:02;84.82;;;79.07;;
53056;SDS011;38940;50.096;4.012;2022-11-04T08:02:45;112.38;;;104.60;;
53056;SDS011;38940;50.096;4.012;2022-11-04T08:05:36;116.90;;;109.25;;
53056;SDS011;38940;50.096;4.012;2022-11-04T08:08:20;111.18;;;102.50;;
53056;SDS011;38940;50.096;4.012;2022-11-04T08:11:08;103.97;;;95.40;;
53056;SDS011;38940;50.096;4.012;2022-11-04T08:16:48;99.60;;;92.47;;
53056;SDS011;38940;50.096;4.012;2022-11-04T08:19:15;89.18;;;82.72;;
53056;SDS011;38940;50.096;4.012;2022-11-04T08:21:41;86.00;;;79.47;;
53056;SDS011;38940;50.096;4.012;2022-11-04T08:24:07;85.28;;;79.03;;
53056;SDS011;38940;50.096;4.012;2022-11-04T08:29:59;74.47;;;68.15;;
53056;SDS011;38940;50.096;4.012;2022-11-04T08:32:25;73.07;;;67.68;;
53056;SDS011;38940;50.096;4.012;2022-11-04T08:35:10;79.32;;;72.78;;
53056;SDS011;38940;50.096;4.012;2022-11-04T08:37:58;73.15;;;68.40;;
53056;SDS011;38940;50.096;4.012;2022-11-04T08:40:24;74.78;;;69.78;;
53056;SDS011;38940;50.096;4.012;2022-11-04T08:43:09;75.97;;;70.72;;
53056;SDS011;38940;50.096;4.012;2022-11-04T08:54:57;110.40;;;102.78;;
53056;SDS011;38940;50.096;4.012;2022-11-04T08:57:39;101.82;;;94.38;;
53056;SDS011;38940;50.096;4.012;2022-11-04T09:03:29;99.60;;;92.78;;
53056;SDS011;38940;50.096;4.012;2022-11-04T09:06:22;105.15;;;97.90;;
53056;SDS011;38940;50.096;4.012;2022-11-04T09:09:08;101.30;;;94.47;;
53056;SDS011;38940;50.096;4.012;2022-11-04T09:11:55;109.10;;;101.55;;
53056;SDS011;38940;50.096;4.012;2022-11-04T09:14:21;87.38;;;81.78;;
53056;SDS011;38940;50.096;4.012;2022-11-04T09:16:50;105.57;;;98.22;;
53056;SDS011;38940;50.096;4.012;2022-11-04T09:19:18;86.32;;;80.13;;
53056;SDS011;38940;50.096;4.012;2022-11-04T09:21:44;77.15;;;72.00;;
53056;SDS011;38940;50.096;4.012;2022-11-04T09:24:19;74.38;;;69.05;;
53056;SDS011;38940;50.096;4.012;2022-11-04T09:26:45;63.05;;;58.75;;
53056;SDS011;38940;50.096;4.012;2022-11-04T09:29:11;62.10;;;57.95;;
53056;SDS011;38940;50.096;4.012;2022-11-04T09:31:37;46.97;;;43.40;;
53056;SDS011;38940;50.096;4.012;2022-11-04T09:34:06;50.42;;;46.42;;
53056;SDS011;38940;50.096;4.012;2022-11-04T09:56:14;50.90;;;47.47;;
53056;SDS011;38940;50.096;4.012;2022-11-04T09:58:40;50.15;;;46.90;;
53056;SDS011;38940;50.096;4.012;2022-11-04T10:23:00;41.40;;;38.47;;
53056;SDS011;38940;50.096;4.012;2022-11-04T10:27:52;45.40;;;42.55;;
53056;SDS011;38940;50.096;4.012;2022-11-04T10:30:20;50.15;;;46.45;;
53056;SDS011;38940;50.096;4.012;2022-11-04T10:32:49;53.50;;;49.63;;
53056;SDS011;38940;50.096;4.012;2022-11-04T10:37:46;41.88;;;38.97;;
53056;SDS011;38940;50.096;4.012;2022-11-04T10:42:42;50.13;;;46.50;;
53056;SDS011;38940;50.096;4.012;2022-11-04T10:45:11;49.92;;;46.45;;
53056;SDS011;38940;50.096;4.012;2022-11-04T10:52:36;46.22;;;42.58;;
53056;SDS011;38940;50.096;4.012;2022-11-04T10:55:04;54.03;;;50.53;;
53056;SDS011;38940;50.096;4.012;2022-11-04T10:57:36;41.13;;;38.17;;
53056;SDS011;38940;50.096;4.012;2022-11-04T11:00:03;42.65;;;39.60;;
53056;SDS011;38940;50.096;4.012;2022-11-04T11:07:44;40.85;;;38.05;;
53056;SDS011;38940;50.096;4.012;2022-11-04T11:10:18;37.03;;;34.67;;
53056;SDS011;38940;50.096;4.012;2022-11-04T11:12:52;38.08;;;35.40;;
53056;SDS011;38940;50.096;4.012;2022-11-04T11:17:44;38.95;;;36.45;;
53056;SDS011;38940;50.096;4.012;2022-11-04T11:20:18;42.15;;;38.40;;
53056;SDS011;38940;50.096;4.012;2022-11-04T11:22:45;38.95;;;35.97;;
53056;SDS011;38940;50.096;4.012;2022-11-04T11:25:32;44.38;;;41.22;;
53056;SDS011;38940;50.096;4.012;2022-11-04T11:30:24;42.15;;;39.20;;
53056;SDS011;38940;50.096;4.012;2022-11-04T11:32:55;43.63;;;40.15;;
53056;SDS011;38940;50.096;4.012;2022-11-04T11:35:22;47.75;;;44.20;;
53056;SDS011;38940;50.096;4.012;2022-11-04T11:37:50;47.28;;;43.88;;
53056;SDS011;38940;50.096;4.012;2022-11-04T11:40:27;50.85;;;47.30;;
53056;SDS011;38940;50.096;4.012;2022-11-04T11:42:55;32.20;;;29.88;;
53056;SDS011;38940;50.096;4.012;2022-11-04T11:45:22;30.45;;;27.75;;
53056;SDS011;38940;50.096;4.012;2022-11-04T11:47:49;49.35;;;45.75;;
53056;SDS011;38940;50.096;4.012;2022-11-04T11:52:47;42.63;;;39.63;;
53056;SDS011;38940;50.096;4.012;2022-11-04T11:55:57;41.13;;;38.03;;
53056;SDS011;38940;50.096;4.012;2022-11-04T12:00:33;38.95;;;35.58;;
53056;SDS011;38940;50.096;4.012;2022-11-04T12:03:37;42.28;;;38.65;;
53056;SDS011;38940;50.096;4.012;2022-11-04T12:11:27;31.50;;;29.33;;
53056;SDS011;38940;50.096;4.012;2022-11-04T12:13:55;27.25;;;25.35;;
53056;SDS011;38940;50.096;4.012;2022-11-04T12:16:28;28.77;;;26.77;;
53056;SDS011;38940;50.096;4.012;2022-11-04T12:21:34;30.02;;;27.40;;
53056;SDS011;38940;50.096;4.012;2022-11-04T12:26:55;35.80;;;33.20;;
53056;SDS011;38940;50.096;4.012;2022-11-04T12:32:00;33.53;;;31.15;;
53056;SDS011;38940;50.096;4.012;2022-11-04T12:42:34;31.75;;;29.45;;
53056;SDS011;38940;50.096;4.012;2022-11-04T12:47:36;45.05;;;42.10;;
53056;SDS011;38940;50.096;4.012;2022-11-04T12:55:16;31.08;;;28.98;;
53056;SDS011;38940;50.096;4.012;2022-11-04T13:00:33;33.28;;;30.38;;
53056;SDS011;38940;50.096;4.012;2022-11-04T13:03:02;37.75;;;34.88;;
53056;SDS011;38940;50.096;4.012;2022-11-04T13:08:04;34.63;;;32.13;;
53056;SDS011;38940;50.096;4.012;2022-11-04T13:12:58;34.33;;;31.92;;
53056;SDS011;38940;50.096;4.012;2022-11-04T13:15:26;50.08;;;46.63;;
53056;SDS011;38940;50.096;4.012;2022-11-04T13:18:00;38.10;;;34.90;;
53056;SDS011;38940;50.096;4.012;2022-11-04T13:20:30;32.92;;;30.70;;
53056;SDS011;38940;50.096;4.012;2022-11-04T13:22:59;37.30;;;34.70;;
53056;SDS011;38940;50.096;4.012;2022-11-04T13:27:53;36.33;;;33.53;;
53056;SDS011;38940;50.096;4.012;2022-11-04T13:30:26;32.60;;;29.70;;
53056;SDS011;38940;50.096;4.012;2022-11-04T13:35:37;38.60;;;35.50;;
53056;SDS011;38940;50.096;4.012;2022-11-04T13:38:06;39.33;;;36.63;;
53056;SDS011;38940;50.096;4.012;2022-11-04T13:43:19;29.83;;;27.73;;
53056;SDS011;38940;50.096;4.012;2022-11-04T13:46:03;31.65;;;28.92;;
53056;SDS011;38940;50.096;4.012;2022-11-04T13:48:32;31.58;;;29.38;;
53056;SDS011;38940;50.096;4.012;2022-11-04T13:51:05;36.20;;;33.53;;
53056;SDS011;38940;50.096;4.012;2022-11-04T13:53:45;32.80;;;30.50;;
53056;SDS011;38940;50.096;4.012;2022-11-04T13:58:55;26.67;;;24.95;;
53056;SDS011;38940;50.096;4.012;2022-11-04T14:04:34;32.97;;;30.67;;
53056;SDS011;38940;50.096;4.012;2022-11-04T14:22:28;53.88;;;49.63;;
53056;SDS011;38940;50.096;4.012;2022-11-04T14:24:55;43.80;;;40.60;;
53056;SDS011;38940;50.096;4.012;2022-11-04T14:27:40;39.20;;;36.40;;
53056;SDS011;38940;50.096;4.012;2022-11-04T14:30:06;48.78;;;45.30;;
53056;SDS011;38940;50.096;4.012;2022-11-04T14:32:34;48.05;;;43.88;;
53056;SDS011;38940;50.096;4.012;2022-11-04T14:35:04;45.55;;;42.28;;
53056;SDS011;38940;50.096;4.012;2022-11-04T14:37:32;45.63;;;42.47;;
53056;SDS011;38940;50.096;4.012;2022-11-04T14:40:00;43.50;;;40.35;;
53056;SDS011;38940;50.096;4.012;2022-11-04T14:45:07;48.60;;;45.17;;
53056;SDS011;38940;50.096;4.012;2022-11-04T14:47:33;41.03;;;38.13;;
53056;SDS011;38940;50.096;4.012;2022-11-04T14:50:02;35.33;;;32.90;;
53056;SDS011;38940;50.096;4.012;2022-11-04T14:52:36;35.42;;;33.10;;
53056;SDS011;38940;50.096;4.012;2022-11-04T14:57:57;30.00;;;28.03;;
53056;SDS011;38940;50.096;4.012;2022-11-04T15:05:36;34.25;;;31.48;;
53056;SDS011;38940;50.096;4.012;2022-11-04T15:10:48;36.03;;;33.47;;
53056;SDS011;38940;50.096;4.012;2022-11-04T15:13:17;40.72;;;37.78;;
53056;SDS011;38940;50.096;4.012;2022-11-04T15:15:44;47.30;;;44.03;;
53056;SDS011;38940;50.096;4.012;2022-11-04T15:18:14;47.25;;;43.90;;
53056;SDS011;38940;50.096;4.012;2022-11-04T15:20:48;46.03;;;42.55;;
53056;SDS011;38940;50.096;4.012;2022-11-04T15:23:16;45.00;;;41.60;;
53056;SDS011;38940;50.096;4.012;2022-11-04T15:25:45;41.33;;;38.00;;
53056;SDS011;38940;50.096;4.012;2022-11-04T15:28:21;42.15;;;39.03;;
53056;SDS011;38940;50.096;4.012;2022-11-04T15:31:05;44.70;;;40.78;;
53056;SDS011;38940;50.096;4.012;2022-11-04T15:33:35;48.15;;;44.10;;
53056;SDS011;38940;50.096;4.012;2022-11-04T15:36:02;54.58;;;49.30;;
53056;SDS011;38940;50.096;4.012;2022-11-04T15:38:28;44.85;;;40.92;;
53056;SDS011;38940;50.096;4.012;2022-11-04T15:40:55;48.50;;;44.67;;
53056;SDS011;38940;50.096;4.012;2022-11-04T15:43:41;42.65;;;39.35;;
53056;SDS011;38940;50.096;4.012;2022-11-04T15:46:13;52.67;;;48.35;;
53056;SDS011;38940;50.096;4.012;2022-11-04T15:48:40;46.55;;;42.92;;
53056;SDS011;38940;50.096;4.012;2022-11-04T15:51:11;39.67;;;36.58;;
53056;SDS011;38940;50.096;4.012;2022-11-04T15:53:46;33.10;;;30.17;;
53056;SDS011;38940;50.096;4.012;2022-11-04T15:56:15;36.42;;;33.75;;
53056;SDS011;38940;50.096;4.012;2022-11-04T15:58:43;37.03;;;33.60;;
53056;SDS011;38940;50.096;4.012;2022-11-04T16:01:11;34.88;;;32.28;;
53056;SDS011;38940;50.096;4.012;2022-11-04T16:03:38;46.38;;;41.15;;
53056;SDS011;38940;50.096;4.012;2022-11-04T16:06:05;39.45;;;36.50;;
53056;SDS011;38940;50.096;4.012;2022-11-04T16:08:32;42.55;;;39.35;;
53056;SDS011;38940;50.096;4.012;2022-11-04T16:11:09;38.42;;;35.08;;
53056;SDS011;38940;50.096;4.012;2022-11-04T16:13:35;48.45;;;44.15;;
53056;SDS011;38940;50.096;4.012;2022-11-04T16:20:55;53.72;;;48.97;;
53056;SDS011;38940;50.096;4.012;2022-11-04T16:23:23;53.95;;;49.70;;
53056;SDS011;38940;50.096;4.012;2022-11-04T16:25:56;56.05;;;51.65;;
53056;SDS011;38940;50.096;4.012;2022-11-04T16:28:23;47.47;;;43.72;;
53056;SDS011;38940;50.096;4.012;2022-11-04T16:30:59;57.00;;;53.00;;
53056;SDS011;38940;50.096;4.012;2022-11-04T16:33:26;51.25;;;46.92;;
53056;SDS011;38940;50.096;4.012;2022-11-04T16:35:52;48.45;;;44.28;;
53056;SDS011;38940;50.096;4.012;2022-11-04T16:38:18;47.05;;;43.60;;
53056;SDS011;38940;50.096;4.012;2022-11-04T16:40:45;45.70;;;42.55;;
53056;SDS011;38940;50.096;4.012;2022-11-04T16:43:12;46.35;;;43.20;;
53056;SDS011;38940;50.096;4.012;2022-11-04T16:45:38;44.28;;;40.45;;
53056;SDS011;38940;50.096;4.012;2022-11-04T16:48:05;46.30;;;42.65;;
53056;SDS011;38940;50.096;4.012;2022-11-04T16:50:32;48.72;;;45.13;;
53056;SDS011;38940;50.096;4.012;2022-11-04T16:52:58;40.83;;;37.75;;
53056;SDS011;38940;50.096;4.012;2022-11-04T16:55:27;43.38;;;40.10;;
53056;SDS011;38940;50.096;4.012;2022-11-04T17:00:41;44.92;;;41.83;;
53056;SDS011;38940;50.096;4.012;2022-11-04T17:03:17;48.35;;;44.88;;
53056;SDS011;38940;50.096;4.012;2022-11-04T17:05:53;50.05;;;46.85;;
53056;SDS011;38940;50.096;4.012;2022-11-04T17:08:41;62.58;;;58.50;;
